Time;durP1;ratioP1;P1;durP2;ratioP2;P2;SDS_P1;SDS_P2;PMS_P1;PMS_P2;Temp;Humidity;BMP_temperature;BMP_pressure;BME280_temperature;BME280_humidity;BME280_pressure;Samples;Min_cycle;Max_cycle;Signal;HPM_P1;HPM_P2
2021/09/02 00:02:19;;;;;;;5.70;4.90;;;18.00;99.90;;;;;;5114860;28;20210;-64
2021/09/02 00:04:45;;;;;;;5.83;5.00;;;17.90;99.90;;;;;;5113153;28;20660;-63
2021/09/02 00:07:10;;;;;;;7.70;5.20;;;17.90;99.90;;;;;;5114769;28;20254;-63
2021/09/02 00:09:36;;;;;;;6.23;5.00;;;17.90;99.90;;;;;;5114389;28;20265;-64
2021/09/02 00:12:02;;;;;;;6.77;5.20;;;17.90;99.90;;;;;;5114691;28;20605;-63
2021/09/02 00:14:28;;;;;;;7.33;5.70;;;17.90;99.90;;;;;;5113027;28;20179;-64
2021/09/02 00:16:54;;;;;;;5.77;4.73;;;17.80;99.90;;;;;;5114650;28;20412;-64
2021/09/02 00:19:19;;;;;;;8.27;6.10;;;17.80;99.90;;;;;;5114144;28;20419;-63
2021/09/02 00:21:45;;;;;;;7.07;5.80;;;17.80;99.90;;;;;;5114561;28;20199;-63
2021/09/02 00:24:11;;;;;;;5.90;5.37;;;17.80;99.90;;;;;;5114141;28;20180;-64
2021/09/02 00:26:37;;;;;;;7.20;5.30;;;17.70;99.90;;;;;;5112732;28;20626;-63
2021/09/02 00:29:02;;;;;;;6.67;5.47;;;17.70;99.90;;;;;;5112848;28;20489;-63
2021/09/02 00:31:28;;;;;;;8.17;6.20;;;17.70;99.90;;;;;;5114287;28;20443;-63
2021/09/02 00:33:54;;;;;;;5.73;5.03;;;17.60;99.90;;;;;;5112787;28;20649;-64
2021/09/02 00:36:19;;;;;;;9.13;5.90;;;17.60;99.90;;;;;;5114088;28;20198;-63
2021/09/02 00:38:45;;;;;;;8.50;5.50;;;17.60;99.90;;;;;;5114058;28;20221;-64
2021/09/02 00:41:10;;;;;;;5.70;4.77;;;17.60;99.90;;;;;;5113878;28;20730;-63
2021/09/02 00:43:37;;;;;;;7.40;5.70;;;17.60;99.90;;;;;;5114035;28;20167;-63
2021/09/02 00:46:03;;;;;;;6.80;5.60;;;17.60;99.90;;;;;;5113938;28;20543;-64
2021/09/02 00:48:29;;;;;;;6.77;5.40;;;17.60;99.90;;;;;;5114052;28;20404;-66
2021/09/02 00:50:54;;;;;;;6.73;5.20;;;17.50;99.90;;;;;;5113780;28;20479;-66
2021/09/02 00:53:20;;;;;;;6.00;5.00;;;17.50;99.90;;;;;;5113954;28;20210;-65
2021/09/02 00:55:48;;;;;;;9.90;6.67;;;17.50;99.90;;;;;;5113703;28;20187;-65
2021/09/02 00:58:13;;;;;;;6.80;5.30;;;17.50;99.90;;;;;;5112607;28;20184;-65
2021/09/02 01:00:39;;;;;;;7.77;5.23;;;17.50;99.90;;;;;;5114061;28;20784;-66
2021/09/02 01:03:05;;;;;;;6.60;5.67;;;17.40;99.90;;;;;;5116935;28;20217;-66
2021/09/02 01:05:30;;;;;;;7.03;5.50;;;17.40;99.90;;;;;;5117978;28;20656;-65
2021/09/02 01:07:58;;;;;;;7.47;5.50;;;17.40;99.90;;;;;;5116589;28;20184;-65
2021/09/02 01:10:23;;;;;;;7.43;6.13;;;17.40;99.90;;;;;;5116351;28;20215;-65
2021/09/02 01:12:50;;;;;;;7.53;5.53;;;17.40;99.90;;;;;;5118276;28;20416;-65
2021/09/02 01:15:18;;;;;;;6.73;6.03;;;17.40;99.90;;;;;;5117642;28;20219;-65
2021/09/02 01:17:49;;;;;;;7.87;5.77;;;17.30;99.90;;;;;;5118165;28;20515;-66
2021/09/02 01:20:17;;;;;;;7.50;5.97;;;17.40;99.90;;;;;;5117601;28;20820;-65
2021/09/02 01:22:47;;;;;;;6.30;5.30;;;17.40;99.90;;;;;;5118140;28;20419;-66
2021/09/02 01:25:34;;;;;;;8.13;5.97;;;17.40;99.90;;;;;;5117458;28;20431;-65
2021/09/02 01:28:05;;;;;;;7.37;6.20;;;17.30;99.90;;;;;;5116836;28;20894;-65
2021/09/02 01:30:35;;;;;;;7.83;6.60;;;17.40;99.90;;;;;;5117442;27;20473;-65
2021/09/02 01:33:01;;;;;;;8.03;6.30;;;17.40;99.90;;;;;;5116322;28;20414;-65
2021/09/02 01:35:31;;;;;;;8.60;6.53;;;17.40;99.90;;;;;;5115984;28;20444;-65
2021/09/02 01:38:00;;;;;;;7.87;6.50;;;17.40;99.90;;;;;;5117399;28;20228;-65
2021/09/02 01:40:37;;;;;;;6.37;5.67;;;17.40;99.90;;;;;;5117186;28;20454;-65
2021/09/02 01:43:05;;;;;;;6.27;5.33;;;17.40;99.90;;;;;;5115971;28;20778;-66
2021/09/02 01:45:31;;;;;;;9.80;6.60;;;17.40;99.90;;;;;;5115789;28;20428;-66
2021/09/02 01:47:59;;;;;;;7.23;5.77;;;17.40;99.90;;;;;;5117108;28;20914;-66
2021/09/02 01:50:26;;;;;;;10.20;7.37;;;17.30;99.90;;;;;;5117082;28;20260;-65
2021/09/02 01:52:54;;;;;;;9.73;7.70;;;17.30;99.90;;;;;;5117437;28;20920;-65
2021/09/02 01:55:22;;;;;;;7.33;5.67;;;17.30;99.90;;;;;;5116862;28;20826;-65
2021/09/02 01:57:48;;;;;;;8.13;6.37;;;17.30;99.90;;;;;;5115818;28;20895;-65
2021/09/02 02:00:15;;;;;;;9.40;6.83;;;17.30;99.90;;;;;;5116718;28;20941;-65
2021/09/02 02:02:42;;;;;;;9.47;6.90;;;17.30;99.90;;;;;;5117348;28;20741;-65
2021/09/02 02:05:09;;;;;;;8.40;7.00;;;17.30;99.90;;;;;;5116626;28;20523;-65
2021/09/02 02:07:37;;;;;;;7.00;5.90;;;17.20;99.90;;;;;;5117227;28;20816;-65
2021/09/02 02:10:09;;;;;;;8.20;6.70;;;17.20;99.90;;;;;;5115261;28;20475;-65
2021/09/02 02:12:35;;;;;;;8.83;6.57;;;17.20;99.90;;;;;;5116165;28;20404;-66
2021/09/02 02:15:00;;;;;;;9.50;7.23;;;17.20;99.90;;;;;;5115218;28;21077;-65
2021/09/02 02:17:26;;;;;;;7.90;7.10;;;17.10;99.90;;;;;;5116978;28;20168;-65
2021/09/02 02:19:52;;;;;;;9.93;6.83;;;17.10;99.90;;;;;;5116432;28;20285;-65
2021/09/02 02:22:17;;;;;;;8.50;6.60;;;17.10;99.90;;;;;;5115273;28;20186;-66
2021/09/02 02:24:43;;;;;;;7.63;6.80;;;17.00;99.90;;;;;;5116262;28;20695;-65
2021/09/02 02:27:08;;;;;;;8.00;7.20;;;17.00;99.90;;;;;;5116270;28;20288;-65
2021/09/02 02:29:34;;;;;;;9.83;6.90;;;17.00;99.90;;;;;;5116347;28;20576;-65
2021/09/02 02:32:00;;;;;;;9.40;6.90;;;17.00;99.90;;;;;;5116481;28;20250;-65
2021/09/02 02:34:25;;;;;;;10.17;6.90;;;17.00;99.90;;;;;;5114860;28;20179;-65
2021/09/02 02:36:51;;;;;;;8.00;6.80;;;16.90;99.90;;;;;;5116504;28;20207;-65
2021/09/02 02:39:16;;;;;;;8.83;7.30;;;16.90;99.90;;;;;;5116026;28;20179;-65
2021/09/02 02:41:42;;;;;;;9.50;7.07;;;16.90;99.90;;;;;;5114908;28;20637;-66
2021/09/02 02:44:08;;;;;;;9.93;6.83;;;16.90;99.90;;;;;;5115983;28;20293;-65
2021/09/02 02:46:33;;;;;;;9.67;7.10;;;16.90;99.90;;;;;;5114818;28;20203;-66
2021/09/02 02:48:59;;;;;;;8.37;6.53;;;16.90;99.90;;;;;;5115911;28;20190;-66
2021/09/02 02:51:25;;;;;;;9.77;7.33;;;16.80;99.90;;;;;;5115892;28;20211;-65
2021/09/02 02:53:50;;;;;;;13.60;7.03;;;16.80;99.90;;;;;;5115938;28;20176;-65
2021/09/02 02:56:16;;;;;;;7.90;7.00;;;16.80;99.90;;;;;;5115771;28;20241;-66
2021/09/02 02:58:43;;;;;;;9.93;7.83;;;16.70;99.90;;;;;;5115705;28;20572;-65
2021/09/02 03:01:08;;;;;;;9.93;8.10;;;16.70;99.90;;;;;;5114224;28;20203;-65
2021/09/02 03:03:34;;;;;;;10.17;7.53;;;16.70;99.90;;;;;;5115641;28;20396;-65
2021/09/02 03:05:59;;;;;;;9.50;7.40;;;16.60;99.90;;;;;;5115537;28;20192;-65
2021/09/02 03:08:25;;;;;;;8.70;6.90;;;16.60;99.90;;;;;;5115566;28;20179;-66
2021/09/02 03:10:51;;;;;;;11.80;8.60;;;16.50;99.90;;;;;;5115383;28;20215;-66
2021/09/02 03:13:16;;;;;;;9.40;7.30;;;16.50;99.90;;;;;;5115470;28;20540;-66
2021/09/02 03:15:42;;;;;;;10.10;7.70;;;16.50;99.90;;;;;;5115222;28;20191;-65
2021/09/02 03:18:07;;;;;;;10.13;7.33;;;16.40;99.90;;;;;;5115391;28;20175;-65
2021/09/02 03:20:33;;;;;;;8.37;7.00;;;16.40;99.90;;;;;;5115089;28;20203;-65
2021/09/02 03:22:59;;;;;;;9.83;6.90;;;16.40;99.90;;;;;;5115232;28;20175;-66
2021/09/02 03:25:25;;;;;;;9.23;7.20;;;16.40;99.90;;;;;;5115046;28;20705;-65
2021/09/02 03:27:50;;;;;;;8.27;7.17;;;16.40;99.90;;;;;;5115371;28;20584;-65
2021/09/02 03:30:16;;;;;;;10.93;7.53;;;16.30;99.90;;;;;;5114942;28;20471;-65
2021/09/02 03:32:41;;;;;;;9.60;7.50;;;16.30;99.90;;;;;;5115548;28;20210;-66
2021/09/02 03:35:08;;;;;;;10.27;7.20;;;16.30;99.90;;;;;;5114886;28;20192;-65
2021/09/02 03:37:35;;;;;;;11.00;8.00;;;16.20;99.90;;;;;;5115256;28;20236;-65
2021/09/02 03:40:01;;;;;;;9.57;6.93;;;16.20;99.90;;;;;;5114832;28;20428;-65
2021/09/02 03:42:27;;;;;;;7.87;6.97;;;16.20;99.90;;;;;;5115322;28;20426;-65
2021/09/02 03:44:53;;;;;;;12.87;9.40;;;16.20;99.90;;;;;;5114988;28;20865;-66
2021/09/02 03:47:18;;;;;;;9.63;7.40;;;16.20;99.90;;;;;;5115184;28;20187;-65
2021/09/02 03:49:44;;;;;;;7.80;6.73;;;16.10;99.90;;;;;;5114651;28;20206;-65
2021/09/02 03:52:09;;;;;;;7.93;6.97;;;16.20;99.90;;;;;;5113268;28;20179;-65
2021/09/02 03:54:35;;;;;;;10.63;7.57;;;16.20;99.90;;;;;;5113304;28;20227;-65
2021/09/02 03:57:01;;;;;;;10.17;7.77;;;16.20;99.90;;;;;;5114916;28;20180;-65
2021/09/02 03:59:26;;;;;;;18.73;7.97;;;16.20;99.90;;;;;;5112232;28;20176;-65
2021/09/02 04:01:52;;;;;;;10.10;7.53;;;16.20;99.90;;;;;;5101270;28;20204;-66
2021/09/02 04:04:17;;;;;;;8.13;6.90;;;16.20;99.90;;;;;;5096166;28;20281;-65
2021/09/02 04:06:43;;;;;;;8.23;7.10;;;16.30;99.90;;;;;;5099777;28;20194;-65
2021/09/02 04:09:08;;;;;;;9.57;7.90;;;16.30;99.90;;;;;;5137915;27;20209;-65
2021/09/02 04:11:34;;;;;;;8.30;6.60;;;16.30;99.90;;;;;;5106296;28;20188;-65
2021/09/02 04:14:00;;;;;;;7.90;6.90;;;16.30;99.90;;;;;;5113594;28;20175;-65
2021/09/02 04:16:25;;;;;;;10.90;7.67;;;16.30;99.90;;;;;;5113609;28;20211;-65
2021/09/02 04:18:51;;;;;;;11.00;7.33;;;16.30;99.90;;;;;;5099708;28;20184;-65
2021/09/02 04:21:17;;;;;;;293.07;194.90;;;16.30;99.90;;;;;;5094514;28;20203;-65
2021/09/02 04:23:44;;;;;;;16.30;11.73;;;16.30;99.90;;;;;;5097282;28;20263;-65
2021/09/02 04:26:09;;;;;;;11.50;8.53;;;16.30;99.90;;;;;;5112682;28;20443;-65
2021/09/02 04:28:35;;;;;;;9.80;8.07;;;16.30;99.90;;;;;;5108322;28;20494;-65
2021/09/02 04:31:01;;;;;;;11.87;7.77;;;16.30;99.90;;;;;;5107704;28;20235;-65
2021/09/02 04:33:27;;;;;;;8.70;7.80;;;16.30;99.90;;;;;;5102738;28;20411;-65
2021/09/02 04:35:53;;;;;;;10.70;8.10;;;16.30;99.90;;;;;;5099976;28;20302;-65
2021/09/02 04:38:20;;;;;;;12.20;8.47;;;16.30;99.90;;;;;;5104539;28;20420;-66
2021/09/02 04:40:47;;;;;;;10.60;7.63;;;16.30;99.90;;;;;;5135529;27;20263;-65
2021/09/02 04:43:13;;;;;;;9.17;7.83;;;16.30;99.90;;;;;;5108244;28;20417;-67
2021/09/02 04:45:39;;;;;;;14.07;7.80;;;16.30;99.90;;;;;;5104950;28;20439;-65
2021/09/02 04:48:23;;;;;;;9.40;7.83;;;16.30;99.90;;;;;;5112736;28;20449;-66
2021/09/02 04:50:50;;;;;;;8.57;7.50;;;16.30;99.90;;;;;;5106400;28;20207;-65
2021/09/02 04:53:17;;;;;;;9.40;7.83;;;16.20;99.90;;;;;;5109962;27;20468;-65
2021/09/02 04:55:43;;;;;;;10.10;7.23;;;16.20;99.90;;;;;;5111503;28;20414;-66
2021/09/02 04:58:10;;;;;;;11.00;8.03;;;16.30;99.90;;;;;;5105831;28;20419;-65
2021/09/02 05:00:37;;;;;;;10.60;7.77;;;16.30;99.90;;;;;;5115325;27;20211;-65
2021/09/02 05:03:04;;;;;;;12.60;8.00;;;16.30;99.90;;;;;;5141619;27;20455;-65
2021/09/02 05:05:30;;;;;;;9.83;7.57;;;16.30;99.90;;;;;;5109763;28;20463;-65
2021/09/02 05:07:56;;;;;;;11.70;7.93;;;16.30;99.90;;;;;;5113352;28;20435;-66
2021/09/02 05:10:22;;;;;;;11.10;8.00;;;16.30;99.90;;;;;;5114217;28;20874;-67
2021/09/02 05:12:48;;;;;;;9.50;8.43;;;16.30;99.90;;;;;;5105321;27;20188;-69
2021/09/02 05:15:14;;;;;;;11.80;8.93;;;16.30;99.90;;;;;;5136447;27;20448;-66
2021/09/02 05:17:39;;;;;;;13.10;8.53;;;16.30;99.90;;;;;;5108089;28;20438;-67
2021/09/02 05:20:06;;;;;;;10.27;7.73;;;16.30;99.90;;;;;;5106311;28;20220;-67
2021/09/02 05:22:32;;;;;;;13.07;8.07;;;16.40;99.90;;;;;;5109403;27;20572;-67
2021/09/02 05:24:57;;;;;;;8.70;7.30;;;16.40;99.90;;;;;;5104846;28;20448;-67
2021/09/02 05:27:23;;;;;;;9.50;8.13;;;16.40;99.90;;;;;;5108963;28;20267;-67
2021/09/02 05:29:49;;;;;;;11.20;8.53;;;16.40;99.90;;;;;;5105206;28;20223;-67
2021/09/02 05:32:14;;;;;;;13.57;8.13;;;16.50;99.90;;;;;;5109197;28;20223;-67
2021/09/02 05:34:41;;;;;;;9.13;7.77;;;16.50;99.90;;;;;;5114294;27;20211;-67
2021/09/02 05:37:07;;;;;;;14.40;9.10;;;16.50;99.90;;;;;;5106479;28;20187;-67
2021/09/02 05:39:32;;;;;;;13.30;7.77;;;16.50;99.90;;;;;;5105802;28;20821;-66
2021/09/02 05:41:58;;;;;;;9.27;7.63;;;16.50;99.90;;;;;;5104860;28;20184;-66
2021/09/02 05:44:24;;;;;;;13.37;9.30;;;16.60;99.90;;;;;;5105274;28;20659;-67
2021/09/02 05:46:49;;;;;;;11.30;9.30;;;16.60;99.90;;;;;;5107444;28;20540;-68
2021/09/02 05:49:15;;;;;;;12.40;8.53;;;16.60;99.90;;;;;;5102522;28;20175;-67
2021/09/02 05:51:41;;;;;;;10.80;8.77;;;16.70;99.90;;;;;;5104620;28;20207;-67
2021/09/02 05:54:06;;;;;;;11.50;8.07;;;16.70;99.90;;;;;;5102042;28;20185;-67
2021/09/02 05:56:32;;;;;;;10.53;7.90;;;16.80;99.90;;;;;;5099155;28;20700;-66
2021/09/02 05:58:58;;;;;;;9.60;7.80;;;16.80;99.90;;;;;;5103621;28;20203;-67
2021/09/02 06:01:23;;;;;;;11.73;7.67;;;16.90;99.90;;;;;;5104659;28;20714;-65
2021/09/02 06:03:49;;;;;;;12.33;7.20;;;17.00;99.90;;;;;;5112611;28;20175;-65
2021/09/02 06:06:14;;;;;;;10.13;7.57;;;17.10;99.90;;;;;;5098567;28;20204;-66
2021/09/02 06:08:40;;;;;;;7.70;6.63;;;17.20;99.90;;;;;;5100611;28;20187;-65
2021/09/02 06:11:06;;;;;;;9.10;8.10;;;17.30;99.90;;;;;;5101172;28;20224;-65
2021/09/02 06:13:32;;;;;;;10.30;7.20;;;17.30;99.90;;;;;;5099257;28;20880;-66
2021/09/02 06:15:59;;;;;;;11.80;8.07;;;17.40;99.90;;;;;;5109441;28;20239;-65
2021/09/02 06:18:25;;;;;;;11.57;8.30;;;17.50;99.90;;;;;;5104485;27;20785;-65
2021/09/02 06:20:51;;;;;;;9.47;7.37;;;17.50;99.90;;;;;;5109539;28;20449;-66
2021/09/02 06:23:17;;;;;;;9.60;7.33;;;17.60;99.90;;;;;;5103632;28;20180;-65
2021/09/02 06:25:42;;;;;;;8.33;6.50;;;17.60;99.90;;;;;;5097477;28;20497;-66
2021/09/02 06:28:08;;;;;;;9.10;7.53;;;17.80;99.90;;;;;;5110349;28;20673;-65
2021/09/02 06:30:34;;;;;;;8.60;6.93;;;17.80;99.90;;;;;;5113076;28;20497;-66
2021/09/02 06:33:00;;;;;;;9.93;7.10;;;17.90;99.90;;;;;;5107895;28;20266;-67
2021/09/02 06:35:26;;;;;;;10.07;7.67;;;17.90;99.90;;;;;;5115610;28;20681;-65
2021/09/02 06:37:51;;;;;;;9.70;6.57;;;18.00;99.90;;;;;;5105069;28;20271;-65
2021/09/02 06:40:17;;;;;;;10.10;8.13;;;18.10;99.90;;;;;;5107070;28;20523;-65
2021/09/02 06:42:43;;;;;;;8.23;7.10;;;18.20;99.90;;;;;;5103374;28;20604;-66
2021/09/02 06:45:09;;;;;;;9.37;7.20;;;18.20;99.90;;;;;;5100227;28;20196;-66
2021/09/02 06:47:38;;;;;;;9.40;6.90;;;18.30;99.90;;;;;;5094161;28;20241;-65
2021/09/02 06:50:04;;;;;;;7.10;6.40;;;18.40;99.90;;;;;;5099033;28;20518;-65
2021/09/02 06:52:29;;;;;;;8.47;6.60;;;18.40;99.90;;;;;;5102088;28;20440;-65
2021/09/02 06:54:55;;;;;;;8.40;7.10;;;18.50;99.90;;;;;;5101303;28;20432;-64
2021/09/02 06:57:21;;;;;;;10.07;7.77;;;18.60;99.90;;;;;;5104684;28;20645;-65
2021/09/02 06:59:46;;;;;;;7.80;6.57;;;18.70;99.90;;;;;;5099457;28;20769;-65
2021/09/02 07:02:12;;;;;;;6.93;6.10;;;18.70;99.90;;;;;;5095219;28;20199;-66
2021/09/02 07:04:37;;;;;;;8.20;6.40;;;18.80;99.90;;;;;;5142349;27;20204;-65
2021/09/02 07:07:03;;;;;;;9.60;7.20;;;18.90;99.90;;;;;;5108303;28;20195;-65
2021/09/02 07:09:29;;;;;;;6.90;6.20;;;18.90;99.90;;;;;;5110694;28;20277;-66
2021/09/02 07:11:55;;;;;;;8.60;5.80;;;19.00;99.90;;;;;;5103890;28;20441;-65
2021/09/02 07:14:20;;;;;;;7.50;6.20;;;19.10;99.90;;;;;;5102131;28;20188;-65
2021/09/02 07:16:46;;;;;;;11.10;6.10;;;19.10;99.90;;;;;;5106585;28;20257;-67
2021/09/02 07:19:11;;;;;;;8.97;6.87;;;19.20;99.90;;;;;;5113572;28;20382;-65
2021/09/02 07:21:37;;;;;;;7.10;6.40;;;19.30;99.90;;;;;;5101170;28;20181;-65
2021/09/02 07:24:03;;;;;;;7.37;5.93;;;19.30;99.90;;;;;;5106269;28;20255;-66
2021/09/02 07:26:28;;;;;;;10.90;6.87;;;19.40;99.90;;;;;;5101912;28;20248;-65
2021/09/02 07:28:54;;;;;;;7.23;6.40;;;19.50;99.90;;;;;;5106176;28;20324;-65
2021/09/02 07:31:20;;;;;;;6.97;6.10;;;19.60;99.90;;;;;;5107874;28;20236;-65
2021/09/02 07:33:45;;;;;;;7.63;6.17;;;19.70;99.90;;;;;;5114701;28;20183;-66
2021/09/02 07:36:11;;;;;;;8.43;5.70;;;19.80;99.90;;;;;;5108483;28;20229;-65
2021/09/02 07:38:36;;;;;;;7.30;6.03;;;19.80;99.90;;;;;;5106873;28;20236;-65
2021/09/02 07:41:02;;;;;;;6.50;5.57;;;19.90;99.90;;;;;;5098278;28;20208;-65
2021/09/02 07:43:29;;;;;;;7.50;6.13;;;20.00;99.90;;;;;;5099142;27;20584;-66
2021/09/02 07:45:55;;;;;;;6.90;6.20;;;20.10;99.90;;;;;;5109284;27;20209;-65
2021/09/02 07:48:20;;;;;;;7.53;6.57;;;20.20;99.90;;;;;;5107162;28;20426;-66
2021/09/02 07:50:46;;;;;;;5.70;4.93;;;20.30;99.90;;;;;;5109782;28;20262;-65
2021/09/02 07:53:11;;;;;;;6.87;6.17;;;20.30;99.90;;;;;;5104638;28;20175;-66
2021/09/02 07:55:37;;;;;;;6.90;6.20;;;20.40;99.90;;;;;;5100419;28;20203;-65
2021/09/02 07:58:03;;;;;;;5.80;4.90;;;20.50;99.90;;;;;;5102151;28;20182;-66
2021/09/02 08:00:29;;;;;;;6.87;5.53;;;20.60;99.90;;;;;;5111773;27;20245;-66
2021/09/02 08:02:54;;;;;;;6.37;5.23;;;20.70;99.90;;;;;;5108689;28;20432;-67
2021/09/02 08:05:20;;;;;;;6.63;5.93;;;20.80;99.90;;;;;;5107006;28;20204;-65
2021/09/02 08:07:50;;;;;;;6.07;5.47;;;20.90;99.90;;;;;;5104960;28;20549;-65
2021/09/02 08:10:19;;;;;;;6.80;5.97;;;20.90;99.90;;;;;;5102017;28;20214;-66
2021/09/02 08:12:45;;;;;;;6.60;5.40;;;21.00;99.90;;;;;;5102928;28;20433;-65
2021/09/02 08:15:11;;;;;;;6.60;4.70;;;21.10;99.90;;;;;;5102406;28;20464;-65
2021/09/02 08:17:38;;;;;;;8.50;5.13;;;21.20;99.90;;;;;;5101161;28;20432;-65
2021/09/02 08:20:04;;;;;;;5.63;5.03;;;21.20;99.90;;;;;;5096610;28;20502;-65
2021/09/02 08:22:30;;;;;;;6.80;5.30;;;21.30;99.90;;;;;;5101995;28;20453;-65
2021/09/02 08:24:56;;;;;;;6.07;5.47;;;21.40;99.90;;;;;;5099604;28;20812;-66
2021/09/02 08:27:21;;;;;;;6.10;4.80;;;21.50;99.90;;;;;;5097314;28;20177;-65
2021/09/02 08:29:47;;;;;;;6.17;5.13;;;21.60;99.90;;;;;;5108450;28;20243;-65
2021/09/02 08:32:13;;;;;;;6.37;5.43;;;21.60;99.90;;;;;;5106870;28;20180;-66
2021/09/02 08:34:39;;;;;;;5.30;4.80;;;21.70;99.90;;;;;;5099671;28;20252;-66
2021/09/02 08:37:04;;;;;;;5.43;4.90;;;21.80;99.90;;;;;;5105649;28;20812;-65
2021/09/02 08:39:30;;;;;;;5.63;5.00;;;21.90;99.90;;;;;;5106729;28;20286;-65
2021/09/02 08:41:56;;;;;;;5.53;5.03;;;22.00;99.90;;;;;;5103846;28;20191;-66
2021/09/02 08:44:23;;;;;;;4.63;4.23;;;22.20;99.90;;;;;;5104732;28;20193;-65
2021/09/02 08:46:49;;;;;;;5.87;5.27;;;22.50;99.90;;;;;;5098155;28;20441;-66
2021/09/02 08:49:20;;;;;;;6.03;4.83;;;22.90;99.90;;;;;;5098979;28;20429;-66
2021/09/02 08:51:48;;;;;;;5.33;4.83;;;23.30;99.90;;;;;;5102685;28;20497;-65
2021/09/02 08:54:13;;;;;;;7.37;4.93;;;23.50;99.90;;;;;;5106251;28;20412;-65
2021/09/02 08:56:39;;;;;;;6.30;4.40;;;23.50;99.90;;;;;;5136483;27;20439;-65
2021/09/02 08:59:05;;;;;;;5.53;4.30;;;23.60;99.90;;;;;;5108435;28;20424;-66
2021/09/02 09:01:31;;;;;;;4.13;3.83;;;23.60;99.90;;;;;;5100023;28;20930;-65
2021/09/02 09:03:57;;;;;;;5.23;4.03;;;23.50;99.90;;;;;;5101404;28;20511;-65
2021/09/02 09:06:29;;;;;;;3.93;3.60;;;23.40;99.90;;;;;;5103066;28;20484;-67
2021/09/02 09:08:55;;;;;;;4.10;3.70;;;23.40;99.90;;;;;;5103661;28;20909;-67
2021/09/02 09:11:25;;;;;;;4.20;3.80;;;23.40;99.90;;;;;;5104546;28;20579;-66
2021/09/02 09:14:12;;;;;;;4.33;4.00;;;23.30;99.90;;;;;;5105672;28;20443;-65
2021/09/02 09:16:58;;;;;;;4.70;4.27;;;23.30;99.90;;;;;;5110338;28;20443;-65
2021/09/02 09:19:50;;;;;;;6.03;4.23;;;23.30;99.90;;;;;;5098873;28;20416;-65
2021/09/02 09:22:18;;;;;;;6.50;3.40;;;23.20;99.90;;;;;;5096222;28;20444;-67
2021/09/02 09:24:53;;;;;;;3.87;3.47;;;23.10;99.90;;;;;;5111068;28;20793;-65
2021/09/02 09:27:26;;;;;;;4.10;3.03;;;23.00;99.90;;;;;;5136185;27;20489;-66
2021/09/02 09:30:03;;;;;;;5.20;3.77;;;23.00;99.90;;;;;;5098303;28;20487;-65
2021/09/02 09:32:55;;;;;;;4.63;3.87;;;22.90;99.90;;;;;;5106063;28;20441;-66
2021/09/02 09:35:29;;;;;;;3.97;3.60;;;22.80;99.90;;;;;;5112711;28;20438;-66
2021/09/02 09:38:09;;;;;;;4.87;4.37;;;22.80;99.90;;;;;;5136319;27;20954;-67
2021/09/02 09:40:40;;;;;;;5.80;4.87;;;22.80;99.90;;;;;;5128988;27;20440;-66
2021/09/02 09:43:09;;;;;;;4.13;3.73;;;22.70;99.90;;;;;;5115120;28;20442;-65
2021/09/02 09:45:54;;;;;;;6.80;4.90;;;22.70;99.90;;;;;;5130821;27;20490;-66
2021/09/02 09:48:20;;;;;;;5.40;4.50;;;22.70;99.90;;;;;;5102598;28;20497;-65
2021/09/02 09:51:03;;;;;;;5.23;4.07;;;22.60;99.90;;;;;;5145310;27;20473;-65
2021/09/02 09:53:29;;;;;;;5.43;4.43;;;22.60;99.90;;;;;;5136568;27;20715;-66
2021/09/02 09:55:56;;;;;;;5.67;4.43;;;22.60;99.90;;;;;;5106575;28;20447;-66
2021/09/02 09:58:23;;;;;;;5.80;4.07;;;22.60;99.90;;;;;;5108298;28;20918;-66
2021/09/02 10:00:52;;;;;;;5.43;3.97;;;22.60;99.90;;;;;;5107748;28;20476;-65
2021/09/02 10:03:19;;;;;;;5.60;3.90;;;22.60;99.90;;;;;;5105992;28;20786;-66
2021/09/02 10:05:47;;;;;;;6.73;4.10;;;22.60;99.90;;;;;;5112970;28;20795;-65
2021/09/02 10:08:13;;;;;;;4.73;4.20;;;22.60;99.90;;;;;;5109330;28;20527;-66
2021/09/02 10:10:38;;;;;;;4.83;4.33;;;22.60;99.90;;;;;;5112207;28;21032;-65
2021/09/02 10:13:05;;;;;;;5.60;4.10;;;22.70;99.90;;;;;;5108013;28;20207;-67
2021/09/02 10:15:30;;;;;;;5.80;4.47;;;22.70;99.90;;;;;;5101358;28;20206;-66
2021/09/02 10:17:57;;;;;;;5.17;3.83;;;22.80;99.90;;;;;;5100767;28;20444;-66
2021/09/02 10:20:27;;;;;;;4.90;3.90;;;22.80;99.90;;;;;;5103084;28;20504;-66
2021/09/02 10:22:58;;;;;;;4.90;4.40;;;22.80;99.90;;;;;;5103263;28;20429;-66
2021/09/02 10:25:33;;;;;;;4.33;3.93;;;22.90;99.90;;;;;;5105581;28;20450;-65
2021/09/02 10:28:01;;;;;;;6.30;4.67;;;23.00;99.90;;;;;;5134234;27;20568;-65
2021/09/02 10:30:28;;;;;;;4.77;4.07;;;23.00;99.90;;;;;;5105375;28;20467;-66
2021/09/02 10:32:55;;;;;;;5.97;4.87;;;23.00;99.90;;;;;;5106537;28;20477;-66
2021/09/02 10:35:21;;;;;;;5.00;3.90;;;23.00;99.90;;;;;;5100467;28;20793;-65
2021/09/02 10:37:46;;;;;;;6.07;4.80;;;23.00;99.90;;;;;;5100188;28;20429;-65
2021/09/02 10:40:18;;;;;;;4.77;3.57;;;23.00;99.90;;;;;;5102187;28;20206;-65
2021/09/02 10:42:47;;;;;;;5.10;4.10;;;22.90;99.90;;;;;;5111907;28;20324;-66
2021/09/02 10:45:25;;;;;;;5.13;4.27;;;23.00;99.90;;;;;;5096706;28;20555;-66
2021/09/02 10:47:52;;;;;;;5.17;3.83;;;23.00;99.90;;;;;;5100721;28;20478;-65
2021/09/02 10:50:22;;;;;;;5.30;4.03;;;23.00;99.90;;;;;;5103838;28;20479;-67
2021/09/02 10:52:49;;;;;;;5.37;4.70;;;23.00;99.90;;;;;;5105653;28;20917;-67
2021/09/02 10:55:39;;;;;;;7.43;4.10;;;23.00;99.90;;;;;;5100496;28;20805;-66
2021/09/02 10:58:06;;;;;;;5.90;3.73;;;23.00;99.90;;;;;;5105541;28;20450;-66
2021/09/02 11:00:34;;;;;;;5.33;4.00;;;23.00;99.90;;;;;;5106275;28;20556;-66
2021/09/02 11:03:17;;;;;;;6.53;5.00;;;23.00;99.90;;;;;;5102856;28;20998;-66
2021/09/02 11:05:53;;;;;;;5.43;4.80;;;23.00;99.90;;;;;;5103758;28;20969;-65
2021/09/02 11:08:32;;;;;;;5.20;4.40;;;23.00;99.90;;;;;;5104000;27;20451;-66
2021/09/02 11:11:18;;;;;;;4.30;3.87;;;23.00;99.90;;;;;;5131826;27;20482;-66
2021/09/02 11:13:46;;;;;;;5.20;4.70;;;23.10;99.90;;;;;;5103525;28;20439;-66
2021/09/02 11:16:14;;;;;;;5.57;4.30;;;23.10;99.90;;;;;;5107031;28;20928;-66
2021/09/02 11:18:48;;;;;;;5.50;4.30;;;23.10;99.90;;;;;;5103884;28;20424;-67
2021/09/02 11:21:16;;;;;;;6.50;4.53;;;23.10;99.90;;;;;;5105531;28;20513;-66
2021/09/02 11:23:46;;;;;;;6.23;4.13;;;23.00;99.90;;;;;;5137901;27;20424;-66
2021/09/02 11:26:37;;;;;;;4.00;3.60;;;23.00;99.90;;;;;;5105257;28;20463;-66
2021/09/02 11:29:04;;;;;;;5.20;4.70;;;23.00;99.90;;;;;;5110509;28;20896;-66
2021/09/02 11:31:31;;;;;;;5.93;4.80;;;23.00;99.90;;;;;;5106538;28;20561;-66
2021/09/02 11:33:57;;;;;;;5.57;4.70;;;23.00;99.90;;;;;;5137216;27;20489;-67
2021/09/02 11:36:23;;;;;;;7.90;4.37;;;23.00;99.90;;;;;;5108081;27;20465;-66
2021/09/02 11:38:59;;;;;;;5.90;4.50;;;23.00;99.90;;;;;;5107731;28;20428;-66
2021/09/02 11:41:25;;;;;;;6.03;5.13;;;23.00;99.90;;;;;;5133672;27;20466;-66
2021/09/02 11:43:52;;;;;;;8.17;4.80;;;23.00;99.90;;;;;;5108704;28;20438;-66
2021/09/02 11:46:21;;;;;;;5.00;4.50;;;22.90;99.90;;;;;;5101386;28;20207;-66
2021/09/02 11:48:58;;;;;;;6.40;5.00;;;22.90;99.90;;;;;;5104925;28;20515;-67
2021/09/02 11:51:30;;;;;;;6.40;3.97;;;22.90;99.90;;;;;;5110412;28;20498;-66
2021/09/02 11:54:11;;;;;;;5.97;4.50;;;22.90;99.90;;;;;;5104970;28;21708;-65
2021/09/02 11:56:39;;;;;;;5.60;4.40;;;22.90;99.90;;;;;;5100730;28;20464;-66
2021/09/02 11:59:07;;;;;;;5.80;5.20;;;22.90;99.90;;;;;;5102659;28;20992;-66
2021/09/02 12:01:33;;;;;;;8.27;4.67;;;22.90;99.90;;;;;;5104482;28;20456;-66
2021/09/02 12:03:59;;;;;;;5.17;4.63;;;22.90;99.90;;;;;;5099935;28;20444;-66
2021/09/02 12:06:30;;;;;;;5.10;4.60;;;22.90;99.90;;;;;;5106838;28;20448;-66
2021/09/02 12:09:01;;;;;;;5.57;4.87;;;22.90;99.90;;;;;;5104254;28;20188;-67
2021/09/02 12:11:28;;;;;;;4.80;4.40;;;22.90;99.90;;;;;;5100451;28;20837;-65
2021/09/02 12:13:55;;;;;;;5.67;4.80;;;22.90;99.90;;;;;;5096906;28;20473;-66
2021/09/02 12:16:24;;;;;;;8.80;6.07;;;22.80;99.90;;;;;;5104773;28;20463;-66
2021/09/02 12:18:59;;;;;;;6.23;5.63;;;22.80;99.90;;;;;;5127395;27;20931;-66
2021/09/02 12:21:28;;;;;;;10.43;7.20;;;22.80;99.90;;;;;;5103768;28;20473;-66
2021/09/02 12:23:56;;;;;;;5.47;4.47;;;22.80;99.90;;;;;;5093690;28;20486;-66
2021/09/02 12:26:41;;;;;;;5.37;4.30;;;22.80;99.90;;;;;;5099930;28;20463;-66
2021/09/02 12:29:11;;;;;;;8.13;4.90;;;22.80;99.90;;;;;;5115730;27;20885;-65
2021/09/02 12:31:37;;;;;;;5.43;4.40;;;22.80;99.90;;;;;;5111607;28;20574;-66
2021/09/02 12:34:08;;;;;;;5.50;4.40;;;22.80;99.90;;;;;;5099465;28;20679;-65
2021/09/02 12:36:43;;;;;;;5.40;4.57;;;22.80;99.90;;;;;;5098382;28;20541;-65
2021/09/02 12:39:26;;;;;;;5.70;4.83;;;22.80;99.90;;;;;;5103999;28;20506;-65
2021/09/02 12:41:57;;;;;;;5.53;4.40;;;22.90;99.90;;;;;;5099001;28;20495;-65
2021/09/02 12:44:31;;;;;;;5.30;4.43;;;22.90;99.90;;;;;;5104822;28;20488;-66
2021/09/02 12:47:00;;;;;;;5.40;4.50;;;23.00;99.90;;;;;;5100113;28;20449;-65
2021/09/02 12:49:31;;;;;;;6.03;5.43;;;23.00;99.90;;;;;;5096648;28;20436;-65